createdAt,value
2019-01-29T00:01:08.542Z,94360.83
2019-01-29T00:03:40.795Z,94363.73
2019-01-29T00:06:11.758Z,94367.16
2019-01-29T00:08:42.584Z,94365.56
2019-01-29T00:11:13.374Z,94372.36
2019-01-29T00:13:45.872Z,94373.39
2019-01-29T00:16:16.703Z,94378.70
2019-01-29T00:18:50.020Z,94382.07
2019-01-29T00:21:22.429Z,94382.07
2019-01-29T00:23:53.466Z,94398.35
2019-01-29T00:26:27.052Z,94402.80
2019-01-29T00:28:57.790Z,94400.41
2019-01-29T00:31:28.504Z,94408.73
2019-01-29T00:34:07.941Z,94407.41
2019-01-29T00:36:39.212Z,94415.30
2019-01-29T00:39:12.275Z,94422.61
2019-01-29T00:41:43.396Z,94421.58
2019-01-29T00:44:15.222Z,94428.89
2019-01-29T00:46:48.245Z,94438.66
2019-01-29T00:49:30.860Z,94442.30
2019-01-29T00:52:01.628Z,94442.02
2019-01-29T00:54:32.464Z,94449.05
2019-01-29T00:57:03.706Z,94450.11
2019-01-29T00:59:34.855Z,94459.55
2019-01-29T01:02:06.198Z,94458.95
2019-01-29T01:04:37.413Z,94463.87
2019-01-29T01:07:08.238Z,94468.30
2019-01-29T01:09:38.986Z,94474.58
2019-01-29T01:12:11.813Z,94486.05
2019-01-29T01:14:43.061Z,94484.16
2019-01-29T01:17:14.152Z,94485.98
2019-01-29T01:19:48.911Z,94492.23
2019-01-29T01:22:19.677Z,94497.77
2019-01-29T01:24:50.827Z,94500.63
2019-01-29T01:27:21.904Z,94499.31
2019-01-29T01:29:52.627Z,94504.56
2019-01-29T01:32:24.000Z,94510.10
2019-01-29T01:34:59.651Z,94506.62
2019-01-29T01:37:30.483Z,94519.08
2019-01-29T01:40:01.296Z,94515.37
2019-01-29T01:42:32.818Z,94517.99
2019-01-29T01:45:03.615Z,94513.99
2019-01-29T01:47:43.891Z,94525.80
2019-01-29T01:50:21.107Z,94521.42
2019-01-29T01:52:59.097Z,94528.20
2019-01-29T01:55:25.023Z,94530.03
2019-01-29T01:57:56.197Z,94531.56
2019-01-29T02:00:27.094Z,94539.16
2019-01-29T02:02:57.842Z,94536.24
2019-01-29T02:05:29.678Z,94541.84
2019-01-29T02:08:01.969Z,94549.37
2019-01-29T02:10:33.062Z,94544.09
2019-01-29T02:13:03.882Z,94546.94
2019-01-29T02:15:34.725Z,94551.09
2019-01-29T02:18:06.044Z,94560.16
2019-01-29T02:20:41.038Z,94560.92
2019-01-29T02:23:14.334Z,94573.53
2019-01-29T02:25:45.437Z,94569.97
2019-01-29T02:28:16.202Z,94571.22
2019-01-29T02:30:47.423Z,94579.63
2019-01-29T02:33:24.724Z,94579.86
2019-01-29T02:35:54.496Z,94588.17
2019-01-29T02:38:25.394Z,94594.16
2019-01-29T02:40:58.876Z,94592.45
2019-01-29T02:43:29.705Z,94604.70
2019-01-29T02:46:02.319Z,94598.65
2019-01-29T02:48:33.204Z,94605.72
2019-01-29T02:51:04.065Z,94608.52
2019-01-29T02:53:34.895Z,94618.21
2019-01-29T02:56:05.659Z,94619.02
2019-01-29T02:58:36.456Z,94624.48
2019-01-29T03:01:07.604Z,94630.23
2019-01-29T03:03:40.068Z,94635.19
2019-01-29T03:06:11.215Z,94640.03
2019-01-29T03:08:42.011Z,94638.22
2019-01-29T03:11:12.853Z,94644.52
2019-01-29T03:13:43.586Z,94655.38
2019-01-29T03:16:14.459Z,94655.78
2019-01-29T03:18:45.621Z,94655.78
2019-01-29T03:21:16.474Z,94667.33
2019-01-29T03:23:47.390Z,94675.55
2019-01-29T03:26:19.199Z,94679.20
2019-01-29T03:28:50.398Z,94675.44
2019-01-29T03:31:21.330Z,94680.39
2019-01-29T03:33:52.784Z,94684.62
2019-01-29T03:36:24.133Z,94690.42
2019-01-29T03:38:54.982Z,94695.16
2019-01-29T03:41:25.792Z,94697.34
2019-01-29T03:43:57.048Z,94691.80
2019-01-29T03:46:28.460Z,94695.30
2019-01-29T03:48:59.455Z,94708.12
2019-01-29T03:51:31.752Z,94707.33
2019-01-29T03:54:03.007Z,94712.94
2019-01-29T03:56:34.087Z,94716.58
2019-01-29T03:59:04.900Z,94723.94
2019-01-29T04:01:38.318Z,94721.31
2019-01-29T04:04:09.442Z,94717.52
2019-01-29T04:06:40.507Z,94728.31
2019-01-29T04:09:12.782Z,94733.05
2019-01-29T04:11:44.020Z,94731.58
2019-01-29T04:14:14.786Z,94741.34
2019-01-29T04:16:46.623Z,94736.27
2019-01-29T04:19:19.146Z,94735.11
2019-01-29T04:21:50.035Z,94743.55
2019-01-29T04:24:20.863Z,94746.10
2019-01-29T04:26:51.687Z,94748.81
2019-01-29T04:29:23.150Z,94759.09
2019-01-29T04:31:54.209Z,94755.20
2019-01-29T04:34:25.391Z,94760.53
2019-01-29T04:36:56.266Z,94759.59
2019-01-29T04:39:27.231Z,94764.32
2019-01-29T04:41:58.289Z,94758.56
2019-01-29T04:44:29.552Z,94766.94
2019-01-29T04:47:00.459Z,94767.89
2019-01-29T04:49:32.531Z,94772.76
2019-01-29T04:52:03.291Z,94782.91
2019-01-29T04:54:34.839Z,94779.05
2019-01-29T04:57:06.014Z,94784.05
2019-01-29T04:59:37.290Z,94792.00
2019-01-29T05:02:10.092Z,94783.84
2019-01-29T05:04:40.911Z,94783.84
2019-01-29T05:07:12.013Z,94789.03
2019-01-29T05:09:42.862Z,94788.28
2019-01-29T05:12:17.616Z,94788.22
2019-01-29T05:14:48.436Z,94788.95
2019-01-29T05:17:19.172Z,94789.58
2019-01-29T05:19:52.243Z,94790.38
2019-01-29T05:22:23.055Z,94797.23
2019-01-29T05:24:53.947Z,94798.03
2019-01-29T05:27:26.139Z,94799.86
2019-01-29T05:30:04.167Z,94799.12
2019-01-29T05:32:36.168Z,94803.57
2019-01-29T05:35:09.450Z,94806.41
2019-01-29T05:37:40.781Z,94808.45
2019-01-29T05:40:13.896Z,94813.19
2019-01-29T05:42:47.652Z,94815.59
2019-01-29T05:45:19.904Z,94817.41
2019-01-29T05:47:53.053Z,94817.20
2019-01-29T05:50:28.574Z,94825.79
2019-01-29T05:52:59.411Z,94828.78
2019-01-29T05:55:30.185Z,94830.09
2019-01-29T05:58:01.307Z,94831.19
2019-01-29T06:00:37.274Z,94840.08
2019-01-29T06:03:08.446Z,94830.82
2019-01-29T06:05:40.533Z,94842.84
2019-01-29T06:08:12.420Z,94844.15
2019-01-29T06:10:44.334Z,94845.41
2019-01-29T06:13:20.123Z,94850.28
2019-01-29T06:15:54.185Z,94849.40
2019-01-29T06:18:29.398Z,94859.84
2019-01-29T06:21:00.523Z,94862.52
2019-01-29T06:23:31.497Z,94857.27
2019-01-29T06:26:02.629Z,94865.43
2019-01-29T06:28:33.444Z,94862.59
2019-01-29T06:31:04.230Z,94873.72
2019-01-29T06:33:35.057Z,94867.03
2019-01-29T06:36:10.715Z,94876.64
2019-01-29T06:38:41.965Z,94872.92
2019-01-29T06:41:13.148Z,94877.89
2019-01-29T06:43:44.485Z,94881.23
2019-01-29T06:46:16.382Z,94884.66
2019-01-29T06:48:53.819Z,94889.95
2019-01-29T06:51:29.332Z,94889.75
2019-01-29T06:54:00.198Z,94896.89
2019-01-29T06:56:31.426Z,94900.41
2019-01-29T06:59:02.381Z,94902.81
2019-01-29T07:01:33.212Z,94902.30
2019-01-29T07:04:06.258Z,94911.83
2019-01-29T07:06:44.143Z,94910.81
2019-01-29T07:09:18.704Z,94916.36
2019-01-29T07:12:01.262Z,94919.19
2019-01-29T07:14:32.100Z,94918.47
2019-01-29T07:17:11.500Z,94928.38
2019-01-29T07:19:46.472Z,94925.16
2019-01-29T07:22:17.362Z,94925.16
2019-01-29T07:24:56.486Z,94923.13
2019-01-29T07:27:28.664Z,94933.70
2019-01-29T07:29:59.469Z,94937.72
2019-01-29T07:32:31.690Z,94936.46
2019-01-29T07:35:05.845Z,94940.91
2019-01-29T07:37:36.925Z,94943.83
2019-01-29T07:40:10.257Z,94948.14
2019-01-29T07:42:43.914Z,94946.91
2019-01-29T07:45:14.791Z,94952.80
2019-01-29T07:47:46.390Z,94948.87
2019-01-29T07:50:17.804Z,94943.33
2019-01-29T07:52:48.629Z,94951.15
2019-01-29T07:55:20.856Z,94951.44
2019-01-29T07:57:51.974Z,94953.10
2019-01-29T08:00:22.934Z,94949.89
2019-01-29T08:02:54.077Z,94951.37
2019-01-29T08:05:25.141Z,94956.45
2019-01-29T08:07:55.886Z,94958.30
2019-01-29T08:10:27.177Z,94961.48
2019-01-29T08:12:58.189Z,94958.52
2019-01-29T08:15:29.071Z,94964.41
2019-01-29T08:18:01.385Z,94963.81
2019-01-29T08:20:32.428Z,94967.41
2019-01-29T08:23:03.458Z,94968.80
2019-01-29T08:25:35.700Z,94966.17
2019-01-29T08:28:08.097Z,94975.28
2019-01-29T08:30:43.726Z,94979.86
2019-01-29T08:33:14.622Z,94983.16
2019-01-29T08:36:06.488Z,94977.18
2019-01-29T08:38:53.740Z,94984.77
2019-01-29T08:41:24.975Z,94987.90
2019-01-29T08:43:58.588Z,94996.41
2019-01-29T08:46:35.419Z,94994.97
2019-01-29T08:49:06.658Z,94998.61
2019-01-29T08:51:40.079Z,94992.25
2019-01-29T08:54:11.528Z,94998.31
2019-01-29T08:56:44.955Z,95007.72
2019-01-29T08:59:19.394Z,95004.53
2019-01-29T09:01:52.047Z,95000.72
2019-01-29T09:04:23.115Z,95001.94
2019-01-29T09:06:55.884Z,95001.51
2019-01-29T09:09:28.434Z,95006.33
2019-01-29T09:11:59.291Z,94996.25
2019-01-29T09:14:35.340Z,94997.72
2019-01-29T09:17:08.440Z,94998.58
2019-01-29T09:19:39.262Z,94998.52
2019-01-29T09:22:14.176Z,95000.89
2019-01-29T09:24:47.921Z,94999.66
2019-01-29T09:27:19.876Z,94998.25
2019-01-29T09:29:51.298Z,95004.30
2019-01-29T09:32:22.336Z,94994.84
2019-01-29T09:34:55.470Z,94998.49
2019-01-29T09:37:29.091Z,95002.84
2019-01-29T09:40:00.312Z,95008.52
2019-01-29T09:42:31.479Z,95006.18
2019-01-29T09:45:07.073Z,95000.68
2019-01-29T09:47:40.387Z,95001.16
2019-01-29T09:50:12.995Z,95003.79
2019-01-29T09:52:43.801Z,94999.05
2019-01-29T09:55:17.517Z,95002.66
2019-01-29T09:57:51.414Z,95006.68
2019-01-29T10:00:34.125Z,95005.07
2019-01-29T10:03:05.145Z,95018.80
2019-01-29T10:05:41.979Z,95009.05
2019-01-29T10:08:12.778Z,95005.72
2019-01-29T10:10:47.288Z,95012.30
2019-01-29T10:13:21.262Z,95010.00
2019-01-29T10:15:53.184Z,95007.51
2019-01-29T10:18:32.097Z,95013.50
2019-01-29T10:21:02.916Z,95007.95
2019-01-29T10:23:37.967Z,95011.89
2019-01-29T10:26:10.590Z,95006.45
2019-01-29T10:28:41.358Z,95002.06
2019-01-29T10:31:20.057Z,95003.31
2019-01-29T10:34:08.621Z,94997.13
2019-01-29T10:36:42.541Z,95007.68
2019-01-29T10:39:18.709Z,94998.98
2019-01-29T10:41:55.677Z,94997.55
2019-01-29T10:44:29.379Z,95000.13
2019-01-29T10:47:05.264Z,94993.91
2019-01-29T10:49:45.128Z,94993.34
2019-01-29T10:52:18.522Z,94989.91
2019-01-29T10:54:49.392Z,94983.61
2019-01-29T10:57:21.751Z,94988.58
2019-01-29T10:59:55.511Z,94976.25
2019-01-29T11:02:26.580Z,94972.81
2019-01-29T11:05:00.613Z,94974.09
2019-01-29T11:08:00.117Z,94969.63
2019-01-29T11:10:33.458Z,94975.95
2019-01-29T11:13:07.384Z,94971.49
2019-01-29T11:15:40.436Z,94972.20
2019-01-29T11:18:18.454Z,94966.01
2019-01-29T11:20:49.570Z,94964.14
2019-01-29T11:23:25.370Z,94962.09
2019-01-29T11:25:58.195Z,94960.48
2019-01-29T11:28:29.710Z,94957.28
2019-01-29T11:31:04.927Z,94962.03
2019-01-29T11:33:36.615Z,94961.73
2019-01-29T11:36:13.761Z,94960.81
2019-01-29T11:38:45.829Z,94956.57
2019-01-29T11:41:36.571Z,94959.69
2019-01-29T11:44:10.361Z,94952.30
2019-01-29T11:46:42.032Z,94956.31
2019-01-29T11:49:12.852Z,94951.59
2019-01-29T11:51:43.584Z,94955.16
2019-01-29T11:54:18.088Z,94953.61
2019-01-29T11:56:48.872Z,94946.52
2019-01-29T11:59:24.314Z,94948.73
2019-01-29T12:01:58.444Z,94952.96
2019-01-29T12:04:31.330Z,94951.02
2019-01-29T12:07:02.491Z,94951.20
2019-01-29T12:09:33.562Z,94952.75
2019-01-29T12:12:05.339Z,94950.11
2019-01-29T12:14:39.262Z,94950.69
2019-01-29T12:17:10.379Z,94962.63
2019-01-29T12:19:41.386Z,94953.83
2019-01-29T12:22:15.782Z,94949.16
2019-01-29T12:24:48.197Z,94953.33
2019-01-29T12:27:19.314Z,94945.00
2019-01-29T12:29:50.196Z,94938.98
2019-01-29T12:32:24.075Z,94934.58
2019-01-29T12:34:55.478Z,94938.38
2019-01-29T12:37:28.499Z,94934.40
2019-01-29T12:40:05.819Z,94932.70
2019-01-29T12:42:41.722Z,94935.11
2019-01-29T12:45:13.010Z,94932.19
2019-01-29T12:47:44.637Z,94936.34
2019-01-29T12:50:22.844Z,94928.95
2019-01-29T12:53:04.622Z,94928.52
2019-01-29T12:55:38.505Z,94926.69
2019-01-29T12:58:09.380Z,94919.38
2019-01-29T13:00:45.096Z,94923.43
2019-01-29T13:03:18.732Z,94921.47
2019-01-29T13:05:55.678Z,94924.70
2019-01-29T13:08:29.526Z,94918.44
2019-01-29T13:11:00.444Z,94917.97
2019-01-29T13:13:31.292Z,94913.83
2019-01-29T13:16:04.460Z,94909.73
2019-01-29T13:18:46.674Z,94908.61
2019-01-29T13:21:17.522Z,94910.29
2019-01-29T13:23:49.573Z,94907.59
2019-01-29T13:26:20.356Z,94905.77
2019-01-29T13:28:51.191Z,94910.03
2019-01-29T13:31:22.173Z,94900.87
2019-01-29T13:33:58.099Z,94899.55
2019-01-29T13:36:28.892Z,94895.31
2019-01-29T13:39:01.456Z,94894.80
2019-01-29T13:41:37.296Z,94896.86
2019-01-29T13:44:09.930Z,94894.42
2019-01-29T13:46:47.994Z,94889.91
2019-01-29T13:49:19.005Z,94890.25
2019-01-29T13:51:50.287Z,94894.40
2019-01-29T13:54:21.052Z,94888.18
2019-01-29T13:56:53.454Z,94891.91
2019-01-29T13:59:25.395Z,94887.98
2019-01-29T14:01:57.769Z,94890.84
2019-01-29T14:04:29.516Z,94884.75
2019-01-29T14:07:03.766Z,94883.98
2019-01-29T14:09:34.759Z,94880.02
2019-01-29T14:12:08.643Z,94876.12
2019-01-29T14:14:39.461Z,94879.22
2019-01-29T14:17:19.981Z,94877.10
2019-01-29T14:19:51.159Z,94873.59
2019-01-29T14:22:31.227Z,94877.25
2019-01-29T14:25:04.747Z,94872.44
2019-01-29T14:27:41.032Z,94876.59
2019-01-29T14:30:35.452Z,94870.17
2019-01-29T14:33:29.774Z,94871.18
2019-01-29T14:36:05.750Z,94870.31
2019-01-29T14:42:32.302Z,94865.22
2019-01-29T14:45:21.640Z,94865.51
2019-01-29T14:48:01.034Z,94865.94
2019-01-29T14:50:47.593Z,94871.05
2019-01-29T14:53:22.364Z,94869.04
2019-01-29T14:55:53.465Z,94873.98
2019-01-29T14:58:37.090Z,94873.63
2019-01-29T15:01:09.770Z,94869.02
2019-01-29T15:03:41.886Z,94869.18
2019-01-29T15:06:12.891Z,94868.05
2019-01-29T15:08:48.209Z,94862.73
2019-01-29T15:11:28.872Z,94866.84
2019-01-29T15:14:06.393Z,94864.17
2019-01-29T15:17:04.174Z,94867.48
2019-01-29T15:19:37.284Z,94863.76
2019-01-29T15:22:12.419Z,94864.45
2019-01-29T15:24:48.072Z,94870.01
2019-01-29T15:27:28.898Z,94860.00
2019-01-29T15:29:59.727Z,94860.96
2019-01-29T15:32:30.745Z,94857.88
2019-01-29T15:35:01.676Z,94864.61
2019-01-29T15:37:33.037Z,94860.12
2019-01-29T15:40:06.876Z,94865.92
2019-01-29T15:42:37.878Z,94860.41
2019-01-29T15:45:17.351Z,94853.25
2019-01-29T15:47:54.042Z,94852.09
2019-01-29T15:50:31.057Z,94856.67
2019-01-29T15:53:08.314Z,94854.16
2019-01-29T15:55:40.359Z,94862.94
2019-01-29T15:58:14.383Z,94859.39
2019-01-29T16:00:45.430Z,94857.39
2019-01-29T16:03:20.515Z,94853.53
2019-01-29T16:05:51.536Z,94849.48
2019-01-29T16:08:30.727Z,94848.49
2019-01-29T16:11:09.013Z,94852.29
2019-01-29T16:13:41.976Z,94852.39
2019-01-29T16:16:15.237Z,94855.05
2019-01-29T16:18:46.450Z,94848.41
2019-01-29T16:21:18.600Z,94851.48
2019-01-29T16:23:52.450Z,94850.56
2019-01-29T16:26:50.808Z,94845.96
2019-01-29T16:29:21.631Z,94852.91
2019-01-29T16:31:56.099Z,94849.29
2019-01-29T16:34:26.948Z,94853.01
2019-01-29T16:36:57.742Z,94852.55
2019-01-29T16:39:36.575Z,94851.48
2019-01-29T16:42:07.905Z,94853.45
2019-01-29T16:44:38.741Z,94850.16
2019-01-29T16:47:09.863Z,94856.80
2019-01-29T16:49:42.264Z,94853.58
2019-01-29T16:53:00.947Z,94846.38
2019-01-29T16:58:36.028Z,94846.08
2019-01-29T17:01:29.852Z,94847.61
2019-01-29T17:04:00.695Z,94848.41
2019-01-29T17:07:02.741Z,94849.95
2019-01-29T17:09:52.560Z,94845.02
2019-01-29T17:12:23.382Z,94844.89
2019-01-29T17:15:17.782Z,94837.58
2019-01-29T17:18:07.921Z,94836.00
2019-01-29T17:24:22.551Z,94844.29
2019-01-29T17:26:54.260Z,94846.33
2019-01-29T17:29:40.541Z,94846.55
2019-01-29T17:32:30.922Z,94845.45
2019-01-29T17:46:57.045Z,94840.94
2019-01-29T17:49:31.876Z,94843.92
2019-01-29T17:52:02.738Z,94837.38
2019-01-29T17:55:07.582Z,94833.66
2019-01-29T17:57:53.536Z,94841.49
2019-01-29T18:00:36.241Z,94837.33
2019-01-29T18:06:13.385Z,94837.88
2019-01-29T18:08:57.014Z,94832.11
2019-01-29T18:11:30.034Z,94830.48
2019-01-29T18:14:33.815Z,94831.39
2019-01-29T18:26:50.578Z,94810.45
2019-01-29T18:29:28.955Z,94811.69
2019-01-29T18:34:56.567Z,94796.20
2019-01-29T18:41:19.286Z,94796.72
2019-01-29T18:52:58.433Z,94794.27
2019-01-29T18:55:48.362Z,94782.84
2019-01-29T18:58:39.687Z,94779.48
2019-01-29T19:01:29.566Z,94774.52
2019-01-29T19:04:21.938Z,94774.64
2019-01-29T19:10:33.066Z,94767.75
2019-01-29T19:13:09.046Z,94762.19
2019-01-29T19:15:42.492Z,94762.37
2019-01-29T19:18:26.992Z,94758.91
2019-01-29T19:21:00.652Z,94751.28
2019-01-29T19:23:42.760Z,94754.39
2019-01-29T19:26:42.865Z,94743.22
2019-01-29T19:29:50.531Z,94746.09
2019-01-29T19:35:07.258Z,94731.09
2019-01-29T19:41:07.004Z,94736.27
2019-01-29T19:43:51.877Z,94730.05
2019-01-29T19:52:13.829Z,94722.02
2019-01-29T19:55:11.101Z,94720.38
2019-01-29T19:58:32.092Z,94708.73
2019-01-29T20:01:31.716Z,94709.31
2019-01-29T20:07:08.086Z,94701.82
2019-01-29T20:13:26.054Z,94698.70
2019-01-29T20:18:42.294Z,94696.73
2019-01-29T20:24:31.407Z,94695.70
2019-01-29T20:33:06.218Z,94686.16
2019-01-29T20:38:41.781Z,94679.22
2019-01-29T20:41:13.126Z,94682.64
2019-01-29T20:44:03.650Z,94682.34
2019-01-29T20:46:35.235Z,94670.19
2019-01-29T20:52:28.033Z,94654.80
2019-01-29T20:58:06.770Z,94649.27
2019-01-29T21:07:16.621Z,94641.58
2019-01-29T21:10:09.495Z,94639.00
2019-01-29T21:16:39.964Z,94626.44
2019-01-29T21:19:14.383Z,94616.12
2019-01-29T21:21:57.397Z,94610.39
2019-01-29T21:28:15.799Z,94616.72
2019-01-29T21:30:48.172Z,94611.19
2019-01-29T21:33:21.771Z,94607.98
2019-01-29T21:39:25.474Z,94599.54
2019-01-29T21:41:56.488Z,94596.92
2019-01-29T21:54:36.454Z,94576.95
2019-01-29T22:02:53.299Z,94577.16
2019-01-29T22:08:40.247Z,94574.39
2019-01-29T22:11:34.297Z,94571.13
2019-01-29T22:14:05.605Z,94562.78
2019-01-29T22:16:55.656Z,94562.19
2019-01-29T22:20:07.249Z,94562.27
2019-01-29T22:22:57.455Z,94561.47
2019-01-29T22:25:49.724Z,94559.70
2019-01-29T22:28:52.760Z,94558.05
2019-01-29T22:31:36.555Z,94557.96
2019-01-29T22:37:08.139Z,94552.06
2019-01-29T22:39:51.566Z,94547.70
2019-01-29T22:42:26.807Z,94543.14
2019-01-29T22:44:58.032Z,94544.58
2019-01-29T22:50:40.784Z,94541.44
2019-01-29T22:56:59.918Z,94537.92
2019-01-29T22:59:33.271Z,94532.09
2019-01-29T23:02:43.466Z,94531.42
2019-01-29T23:05:27.366Z,94532.94
2019-01-29T23:08:09.319Z,94534.52
2019-01-29T23:10:40.178Z,94536.47
2019-01-29T23:16:41.064Z,94517.05
2019-01-29T23:21:44.154Z,94512.45
2019-01-29T23:24:15.058Z,94510.30
2019-01-29T23:26:47.873Z,94502.94
2019-01-29T23:29:43.704Z,94505.65
2019-01-29T23:35:17.835Z,94490.91
2019-01-29T23:38:03.423Z,94482.83
2019-01-29T23:40:34.269Z,94477.86
2019-01-29T23:43:08.904Z,94470.83
2019-01-29T23:46:00.755Z,94468.03
2019-01-29T23:48:55.088Z,94465.06
2019-01-29T23:51:27.629Z,94460.00
2019-01-29T23:54:00.720Z,94461.30
2019-01-29T23:56:50.490Z,94450.44
2019-01-29T23:59:21.367Z,94454.59
